sensor_id;sensor_type;location;lat;lon;timestamp;P1;durP1;ratioP1;P2;durP2;ratioP2
12048;SDS011;6085;49.452;8.502;2023-07-31T00:02:22;0.80;;;0.80;;
12048;SDS011;6085;49.452;8.502;2023-07-31T00:06:24;1.27;;;1.10;;
12048;SDS011;6085;49.452;8.502;2023-07-31T00:10:26;1.92;;;1.00;;
12048;SDS011;6085;49.452;8.502;2023-07-31T00:14:28;1.38;;;0.88;;
12048;SDS011;6085;49.452;8.502;2023-07-31T00:18:31;0.85;;;0.60;;
12048;SDS011;6085;49.452;8.502;2023-07-31T00:22:33;1.73;;;0.90;;
12048;SDS011;6085;49.452;8.502;2023-07-31T00:26:36;1.20;;;0.98;;
12048;SDS011;6085;49.452;8.502;2023-07-31T00:30:38;0.98;;;0.88;;
12048;SDS011;6085;49.452;8.502;2023-07-31T00:34:42;2.55;;;1.00;;
12048;SDS011;6085;49.452;8.502;2023-07-31T00:38:44;2.33;;;0.90;;
12048;SDS011;6085;49.452;8.502;2023-07-31T00:42:46;0.90;;;0.90;;
12048;SDS011;6085;49.452;8.502;2023-07-31T00:46:48;1.17;;;0.82;;
12048;SDS011;6085;49.452;8.502;2023-07-31T00:50:51;2.13;;;1.08;;
12048;SDS011;6085;49.452;8.502;2023-07-31T00:54:53;3.25;;;1.15;;
12048;SDS011;6085;49.452;8.502;2023-07-31T00:58:55;2.35;;;0.73;;
12048;SDS011;6085;49.452;8.502;2023-07-31T01:02:57;2.35;;;1.10;;
12048;SDS011;6085;49.452;8.502;2023-07-31T01:07:03;1.77;;;1.00;;
12048;SDS011;6085;49.452;8.502;2023-07-31T01:11:14;1.10;;;0.80;;
12048;SDS011;6085;49.452;8.502;2023-07-31T01:15:20;1.05;;;0.90;;
12048;SDS011;6085;49.452;8.502;2023-07-31T01:19:23;2.42;;;1.00;;
12048;SDS011;6085;49.452;8.502;2023-07-31T01:28:11;1.77;;;0.93;;
12048;SDS011;6085;49.452;8.502;2023-07-31T01:32:16;1.40;;;1.30;;
12048;SDS011;6085;49.452;8.502;2023-07-31T01:36:20;1.00;;;0.77;;
12048;SDS011;6085;49.452;8.502;2023-07-31T01:40:22;1.55;;;1.10;;
12048;SDS011;6085;49.452;8.502;2023-07-31T01:44:25;1.88;;;1.30;;
12048;SDS011;6085;49.452;8.502;2023-07-31T01:48:27;1.40;;;1.00;;
12048;SDS011;6085;49.452;8.502;2023-07-31T01:52:29;2.88;;;0.95;;
12048;SDS011;6085;49.452;8.502;2023-07-31T01:56:31;1.08;;;0.90;;
12048;SDS011;6085;49.452;8.502;2023-07-31T02:00:34;1.95;;;1.10;;
12048;SDS011;6085;49.452;8.502;2023-07-31T02:04:36;2.35;;;0.98;;
12048;SDS011;6085;49.452;8.502;2023-07-31T02:08:39;1.50;;;0.98;;
12048;SDS011;6085;49.452;8.502;2023-07-31T02:12:41;1.50;;;1.00;;
12048;SDS011;6085;49.452;8.502;2023-07-31T02:16:45;3.10;;;1.08;;
12048;SDS011;6085;49.452;8.502;2023-07-31T02:20:48;1.83;;;1.02;;
12048;SDS011;6085;49.452;8.502;2023-07-31T02:24:51;1.92;;;1.10;;
12048;SDS011;6085;49.452;8.502;2023-07-31T02:28:52;3.10;;;1.00;;
12048;SDS011;6085;49.452;8.502;2023-07-31T02:32:56;1.30;;;1.20;;
12048;SDS011;6085;49.452;8.502;2023-07-31T02:36:58;1.58;;;1.23;;
12048;SDS011;6085;49.452;8.502;2023-07-31T02:41:00;0.98;;;0.95;;
12048;SDS011;6085;49.452;8.502;2023-07-31T02:45:02;1.55;;;0.95;;
12048;SDS011;6085;49.452;8.502;2023-07-31T02:49:06;0.77;;;0.77;;
12048;SDS011;6085;49.452;8.502;2023-07-31T02:53:08;1.70;;;1.30;;
12048;SDS011;6085;49.452;8.502;2023-07-31T02:57:10;2.58;;;0.88;;
12048;SDS011;6085;49.452;8.502;2023-07-31T03:01:11;1.30;;;1.10;;
12048;SDS011;6085;49.452;8.502;2023-07-31T03:05:15;1.08;;;1.08;;
12048;SDS011;6085;49.452;8.502;2023-07-31T03:09:17;2.25;;;1.20;;
12048;SDS011;6085;49.452;8.502;2023-07-31T03:13:19;1.25;;;1.15;;
12048;SDS011;6085;49.452;8.502;2023-07-31T03:17:21;2.67;;;1.10;;
12048;SDS011;6085;49.452;8.502;2023-07-31T03:21:24;1.58;;;0.85;;
12048;SDS011;6085;49.452;8.502;2023-07-31T03:25:26;1.58;;;1.10;;
12048;SDS011;6085;49.452;8.502;2023-07-31T03:29:28;1.00;;;1.00;;
12048;SDS011;6085;49.452;8.502;2023-07-31T03:33:30;1.75;;;1.08;;
12048;SDS011;6085;49.452;8.502;2023-07-31T03:37:33;1.15;;;1.02;;
12048;SDS011;6085;49.452;8.502;2023-07-31T03:41:35;1.27;;;1.17;;
12048;SDS011;6085;49.452;8.502;2023-07-31T03:45:37;1.13;;;1.10;;
12048;SDS011;6085;49.452;8.502;2023-07-31T03:49:39;2.00;;;1.20;;
12048;SDS011;6085;49.452;8.502;2023-07-31T03:53:42;2.55;;;1.42;;
12048;SDS011;6085;49.452;8.502;2023-07-31T03:57:44;1.67;;;1.13;;
12048;SDS011;6085;49.452;8.502;2023-07-31T04:01:46;2.30;;;1.25;;
12048;SDS011;6085;49.452;8.502;2023-07-31T04:05:48;1.10;;;1.00;;
12048;SDS011;6085;49.452;8.502;2023-07-31T04:09:51;2.38;;;1.13;;
12048;SDS011;6085;49.452;8.502;2023-07-31T04:13:53;1.45;;;1.23;;
12048;SDS011;6085;49.452;8.502;2023-07-31T04:17:55;1.85;;;1.10;;
12048;SDS011;6085;49.452;8.502;2023-07-31T04:21:57;1.42;;;1.15;;
12048;SDS011;6085;49.452;8.502;2023-07-31T04:26:01;2.20;;;1.10;;
12048;SDS011;6085;49.452;8.502;2023-07-31T04:30:03;1.48;;;1.02;;
12048;SDS011;6085;49.452;8.502;2023-07-31T04:34:06;1.42;;;1.00;;
12048;SDS011;6085;49.452;8.502;2023-07-31T04:38:08;1.30;;;1.20;;
12048;SDS011;6085;49.452;8.502;2023-07-31T04:42:12;1.27;;;1.15;;
12048;SDS011;6085;49.452;8.502;2023-07-31T04:46:14;1.75;;;1.27;;
12048;SDS011;6085;49.452;8.502;2023-07-31T04:50:16;2.40;;;1.20;;
12048;SDS011;6085;49.452;8.502;2023-07-31T04:54:18;2.20;;;1.00;;
12048;SDS011;6085;49.452;8.502;2023-07-31T04:58:21;1.38;;;1.10;;
12048;SDS011;6085;49.452;8.502;2023-07-31T05:02:23;1.60;;;1.23;;
12048;SDS011;6085;49.452;8.502;2023-07-31T05:06:25;3.65;;;1.65;;
12048;SDS011;6085;49.452;8.502;2023-07-31T05:10:27;1.20;;;1.10;;
12048;SDS011;6085;49.452;8.502;2023-07-31T05:14:31;1.55;;;1.15;;
12048;SDS011;6085;49.452;8.502;2023-07-31T05:18:33;1.15;;;1.02;;
12048;SDS011;6085;49.452;8.502;2023-07-31T05:22:35;2.88;;;1.20;;
12048;SDS011;6085;49.452;8.502;2023-07-31T05:26:37;1.90;;;1.05;;
12048;SDS011;6085;49.452;8.502;2023-07-31T05:30:40;2.40;;;1.40;;
12048;SDS011;6085;49.452;8.502;2023-07-31T05:34:42;1.48;;;1.35;;
12048;SDS011;6085;49.452;8.502;2023-07-31T05:38:44;2.30;;;1.33;;
12048;SDS011;6085;49.452;8.502;2023-07-31T05:42:46;1.58;;;1.40;;
12048;SDS011;6085;49.452;8.502;2023-07-31T05:46:49;2.03;;;1.35;;
12048;SDS011;6085;49.452;8.502;2023-07-31T05:50:51;0.93;;;0.80;;
12048;SDS011;6085;49.452;8.502;2023-07-31T05:54:53;2.15;;;1.33;;
12048;SDS011;6085;49.452;8.502;2023-07-31T05:58:55;1.00;;;0.90;;
12048;SDS011;6085;49.452;8.502;2023-07-31T06:02:58;1.20;;;1.10;;
12048;SDS011;6085;49.452;8.502;2023-07-31T06:07:00;2.67;;;1.40;;
12048;SDS011;6085;49.452;8.502;2023-07-31T06:11:03;1.45;;;1.10;;
12048;SDS011;6085;49.452;8.502;2023-07-31T06:15:06;2.63;;;1.40;;
12048;SDS011;6085;49.452;8.502;2023-07-31T06:19:09;2.13;;;1.60;;
12048;SDS011;6085;49.452;8.502;2023-07-31T06:23:13;1.40;;;1.30;;
12048;SDS011;6085;49.452;8.502;2023-07-31T06:27:14;2.10;;;1.38;;
12048;SDS011;6085;49.452;8.502;2023-07-31T06:31:16;1.75;;;1.48;;
12048;SDS011;6085;49.452;8.502;2023-07-31T06:35:24;1.35;;;1.20;;
12048;SDS011;6085;49.452;8.502;2023-07-31T06:39:26;10.25;;;2.80;;
12048;SDS011;6085;49.452;8.502;2023-07-31T06:43:28;1.35;;;1.15;;
12048;SDS011;6085;49.452;8.502;2023-07-31T06:47:30;1.50;;;0.93;;
12048;SDS011;6085;49.452;8.502;2023-07-31T06:51:33;2.22;;;1.55;;
12048;SDS011;6085;49.452;8.502;2023-07-31T06:55:36;1.83;;;1.30;;
12048;SDS011;6085;49.452;8.502;2023-07-31T06:59:38;1.25;;;1.05;;
12048;SDS011;6085;49.452;8.502;2023-07-31T07:03:41;1.52;;;0.98;;
12048;SDS011;6085;49.452;8.502;2023-07-31T07:07:44;1.42;;;1.33;;
12048;SDS011;6085;49.452;8.502;2023-07-31T07:11:46;2.80;;;1.50;;
12048;SDS011;6085;49.452;8.502;2023-07-31T07:15:48;1.98;;;1.27;;
12048;SDS011;6085;49.452;8.502;2023-07-31T07:19:50;1.33;;;1.10;;
12048;SDS011;6085;49.452;8.502;2023-07-31T07:23:54;1.10;;;1.00;;
12048;SDS011;6085;49.452;8.502;2023-07-31T07:27:56;1.50;;;1.40;;
12048;SDS011;6085;49.452;8.502;2023-07-31T07:31:59;1.73;;;1.20;;
12048;SDS011;6085;49.452;8.502;2023-07-31T07:36:01;4.43;;;1.50;;
12048;SDS011;6085;49.452;8.502;2023-07-31T07:40:05;1.98;;;1.33;;
12048;SDS011;6085;49.452;8.502;2023-07-31T07:44:08;1.35;;;1.25;;
12048;SDS011;6085;49.452;8.502;2023-07-31T07:48:13;1.05;;;1.05;;
12048;SDS011;6085;49.452;8.502;2023-07-31T07:52:17;1.27;;;1.17;;
12048;SDS011;6085;49.452;8.502;2023-07-31T07:56:20;1.38;;;1.20;;
12048;SDS011;6085;49.452;8.502;2023-07-31T08:00:22;1.30;;;1.20;;
12048;SDS011;6085;49.452;8.502;2023-07-31T08:04:24;1.35;;;1.17;;
12048;SDS011;6085;49.452;8.502;2023-07-31T08:08:28;1.52;;;1.00;;
12048;SDS011;6085;49.452;8.502;2023-07-31T08:12:31;1.23;;;1.10;;
12048;SDS011;6085;49.452;8.502;2023-07-31T08:16:33;2.55;;;1.40;;
12048;SDS011;6085;49.452;8.502;2023-07-31T08:20:35;2.47;;;1.30;;
12048;SDS011;6085;49.452;8.502;2023-07-31T08:24:37;1.08;;;1.02;;
12048;SDS011;6085;49.452;8.502;2023-07-31T08:28:40;2.83;;;1.38;;
12048;SDS011;6085;49.452;8.502;2023-07-31T08:32:42;2.65;;;1.40;;
12048;SDS011;6085;49.452;8.502;2023-07-31T08:36:44;1.13;;;1.08;;
12048;SDS011;6085;49.452;8.502;2023-07-31T08:40:46;1.35;;;1.13;;
12048;SDS011;6085;49.452;8.502;2023-07-31T08:44:49;1.30;;;1.20;;
12048;SDS011;6085;49.452;8.502;2023-07-31T08:48:52;1.92;;;1.48;;
12048;SDS011;6085;49.452;8.502;2023-07-31T08:52:55;1.33;;;1.20;;
12048;SDS011;6085;49.452;8.502;2023-07-31T08:56:57;5.20;;;1.52;;
12048;SDS011;6085;49.452;8.502;2023-07-31T09:01:03;1.48;;;1.38;;
12048;SDS011;6085;49.452;8.502;2023-07-31T09:05:06;2.05;;;1.10;;
12048;SDS011;6085;49.452;8.502;2023-07-31T09:09:09;1.23;;;1.13;;
12048;SDS011;6085;49.452;8.502;2023-07-31T09:13:12;1.92;;;1.00;;
12048;SDS011;6085;49.452;8.502;2023-07-31T09:17:15;2.20;;;1.40;;
12048;SDS011;6085;49.452;8.502;2023-07-31T09:21:18;1.27;;;1.17;;
12048;SDS011;6085;49.452;8.502;2023-07-31T09:25:20;2.40;;;1.40;;
12048;SDS011;6085;49.452;8.502;2023-07-31T09:29:23;1.30;;;1.20;;
12048;SDS011;6085;49.452;8.502;2023-07-31T09:33:27;1.40;;;1.20;;
12048;SDS011;6085;49.452;8.502;2023-07-31T09:37:31;2.35;;;1.40;;
12048;SDS011;6085;49.452;8.502;2023-07-31T09:41:34;1.55;;;1.17;;
12048;SDS011;6085;49.452;8.502;2023-07-31T09:45:39;4.40;;;1.38;;
12048;SDS011;6085;49.452;8.502;2023-07-31T09:49:46;3.33;;;1.50;;
12048;SDS011;6085;49.452;8.502;2023-07-31T09:53:49;1.38;;;1.27;;
12048;SDS011;6085;49.452;8.502;2023-07-31T09:57:51;2.13;;;1.20;;
12048;SDS011;6085;49.452;8.502;2023-07-31T10:01:55;2.80;;;1.50;;
12048;SDS011;6085;49.452;8.502;2023-07-31T10:05:59;1.45;;;1.30;;
12048;SDS011;6085;49.452;8.502;2023-07-31T10:10:03;1.92;;;1.05;;
12048;SDS011;6085;49.452;8.502;2023-07-31T10:14:07;2.42;;;1.67;;
12048;SDS011;6085;49.452;8.502;2023-07-31T10:18:10;1.83;;;1.50;;
12048;SDS011;6085;49.452;8.502;2023-07-31T10:22:14;1.85;;;1.35;;
12048;SDS011;6085;49.452;8.502;2023-07-31T10:26:16;2.00;;;1.48;;
12048;SDS011;6085;49.452;8.502;2023-07-31T10:30:20;1.52;;;1.23;;
12048;SDS011;6085;49.452;8.502;2023-07-31T10:34:26;1.98;;;1.40;;
12048;SDS011;6085;49.452;8.502;2023-07-31T10:38:29;1.88;;;1.45;;
12048;SDS011;6085;49.452;8.502;2023-07-31T10:42:32;3.30;;;1.63;;
12048;SDS011;6085;49.452;8.502;2023-07-31T10:46:35;2.00;;;1.60;;
12048;SDS011;6085;49.452;8.502;2023-07-31T10:50:38;2.65;;;1.48;;
12048;SDS011;6085;49.452;8.502;2023-07-31T10:54:50;3.75;;;1.80;;
12048;SDS011;6085;49.452;8.502;2023-07-31T10:59:16;1.75;;;1.38;;
12048;SDS011;6085;49.452;8.502;2023-07-31T11:03:20;2.45;;;1.60;;
12048;SDS011;6085;49.452;8.502;2023-07-31T11:07:27;2.03;;;1.35;;
12048;SDS011;6085;49.452;8.502;2023-07-31T11:11:49;1.77;;;1.40;;
12048;SDS011;6085;49.452;8.502;2023-07-31T11:15:52;3.40;;;1.55;;
12048;SDS011;6085;49.452;8.502;2023-07-31T11:19:54;3.08;;;1.65;;
12048;SDS011;6085;49.452;8.502;2023-07-31T11:23:56;2.15;;;1.58;;
12048;SDS011;6085;49.452;8.502;2023-07-31T11:28:03;1.92;;;1.38;;
12048;SDS011;6085;49.452;8.502;2023-07-31T11:32:08;2.58;;;1.52;;
12048;SDS011;6085;49.452;8.502;2023-07-31T11:36:20;2.90;;;1.38;;
12048;SDS011;6085;49.452;8.502;2023-07-31T11:40:22;1.48;;;1.38;;
12048;SDS011;6085;49.452;8.502;2023-07-31T11:44:38;1.60;;;1.50;;
12048;SDS011;6085;49.452;8.502;2023-07-31T11:48:43;1.92;;;1.35;;
12048;SDS011;6085;49.452;8.502;2023-07-31T11:52:46;2.35;;;1.38;;
12048;SDS011;6085;49.452;8.502;2023-07-31T11:56:49;2.53;;;1.77;;
12048;SDS011;6085;49.452;8.502;2023-07-31T12:00:53;2.20;;;1.10;;
12048;SDS011;6085;49.452;8.502;2023-07-31T12:04:55;1.98;;;1.23;;
12048;SDS011;6085;49.452;8.502;2023-07-31T12:09:00;1.30;;;1.20;;
12048;SDS011;6085;49.452;8.502;2023-07-31T12:13:03;1.52;;;1.27;;
12048;SDS011;6085;49.452;8.502;2023-07-31T12:17:07;3.50;;;2.00;;
12048;SDS011;6085;49.452;8.502;2023-07-31T12:21:10;1.40;;;1.30;;
12048;SDS011;6085;49.452;8.502;2023-07-31T12:25:15;3.13;;;1.58;;
12048;SDS011;6085;49.452;8.502;2023-07-31T12:29:17;2.58;;;1.40;;
12048;SDS011;6085;49.452;8.502;2023-07-31T12:33:20;4.68;;;1.88;;
12048;SDS011;6085;49.452;8.502;2023-07-31T12:37:22;1.75;;;1.33;;
12048;SDS011;6085;49.452;8.502;2023-07-31T12:41:24;3.10;;;1.52;;
12048;SDS011;6085;49.452;8.502;2023-07-31T12:45:27;2.53;;;1.38;;
12048;SDS011;6085;49.452;8.502;2023-07-31T12:49:30;2.33;;;1.60;;
12048;SDS011;6085;49.452;8.502;2023-07-31T12:53:32;2.40;;;1.40;;
12048;SDS011;6085;49.452;8.502;2023-07-31T12:57:34;2.25;;;1.33;;
12048;SDS011;6085;49.452;8.502;2023-07-31T13:01:36;1.80;;;1.48;;
12048;SDS011;6085;49.452;8.502;2023-07-31T13:05:39;1.60;;;1.48;;
12048;SDS011;6085;49.452;8.502;2023-07-31T13:09:41;1.60;;;1.50;;
12048;SDS011;6085;49.452;8.502;2023-07-31T13:13:46;3.42;;;1.48;;
12048;SDS011;6085;49.452;8.502;2023-07-31T13:17:48;1.95;;;1.55;;
12048;SDS011;6085;49.452;8.502;2023-07-31T13:21:51;1.80;;;1.13;;
12048;SDS011;6085;49.452;8.502;2023-07-31T13:25:53;1.60;;;1.20;;
12048;SDS011;6085;49.452;8.502;2023-07-31T13:29:55;1.92;;;1.38;;
12048;SDS011;6085;49.452;8.502;2023-07-31T13:33:57;2.15;;;1.25;;
12048;SDS011;6085;49.452;8.502;2023-07-31T13:38:00;1.75;;;1.50;;
12048;SDS011;6085;49.452;8.502;2023-07-31T13:42:03;2.15;;;1.50;;
12048;SDS011;6085;49.452;8.502;2023-07-31T13:46:06;1.40;;;1.30;;
12048;SDS011;6085;49.452;8.502;2023-07-31T13:50:10;1.67;;;1.50;;
12048;SDS011;6085;49.452;8.502;2023-07-31T13:54:14;2.05;;;1.38;;
12048;SDS011;6085;49.452;8.502;2023-07-31T13:58:17;2.10;;;1.35;;
12048;SDS011;6085;49.452;8.502;2023-07-31T14:02:19;1.83;;;1.60;;
12048;SDS011;6085;49.452;8.502;2023-07-31T14:06:21;2.33;;;1.38;;
12048;SDS011;6085;49.452;8.502;2023-07-31T14:10:24;1.77;;;1.40;;
12048;SDS011;6085;49.452;8.502;2023-07-31T14:14:26;3.53;;;1.67;;
12048;SDS011;6085;49.452;8.502;2023-07-31T14:18:28;3.42;;;1.60;;
12048;SDS011;6085;49.452;8.502;2023-07-31T14:22:30;2.72;;;1.73;;
12048;SDS011;6085;49.452;8.502;2023-07-31T14:26:35;2.60;;;1.40;;
12048;SDS011;6085;49.452;8.502;2023-07-31T14:30:37;1.60;;;1.50;;
12048;SDS011;6085;49.452;8.502;2023-07-31T14:34:39;2.60;;;1.40;;
12048;SDS011;6085;49.452;8.502;2023-07-31T14:38:41;1.40;;;1.30;;
12048;SDS011;6085;49.452;8.502;2023-07-31T14:42:45;2.88;;;1.60;;
12048;SDS011;6085;49.452;8.502;2023-07-31T14:46:47;3.47;;;1.58;;
12048;SDS011;6085;49.452;8.502;2023-07-31T14:50:49;2.28;;;1.70;;
12048;SDS011;6085;49.452;8.502;2023-07-31T14:54:51;1.80;;;1.08;;
12048;SDS011;6085;49.452;8.502;2023-07-31T14:58:54;1.27;;;1.17;;
12048;SDS011;6085;49.452;8.502;2023-07-31T15:02:59;2.55;;;1.67;;
12048;SDS011;6085;49.452;8.502;2023-07-31T15:07:01;1.48;;;1.38;;
12048;SDS011;6085;49.452;8.502;2023-07-31T15:11:03;1.60;;;1.33;;
12048;SDS011;6085;49.452;8.502;2023-07-31T15:15:08;1.55;;;1.40;;
12048;SDS011;6085;49.452;8.502;2023-07-31T15:19:10;1.48;;;1.38;;
12048;SDS011;6085;49.452;8.502;2023-07-31T15:23:12;1.40;;;1.20;;
12048;SDS011;6085;49.452;8.502;2023-07-31T15:27:14;1.65;;;1.25;;
12048;SDS011;6085;49.452;8.502;2023-07-31T15:31:18;1.17;;;1.08;;
12048;SDS011;6085;49.452;8.502;2023-07-31T15:35:20;2.05;;;1.20;;
12048;SDS011;6085;49.452;8.502;2023-07-31T15:39:22;3.75;;;1.52;;
12048;SDS011;6085;49.452;8.502;2023-07-31T15:43:24;2.45;;;1.45;;
12048;SDS011;6085;49.452;8.502;2023-07-31T15:47:28;1.77;;;1.40;;
12048;SDS011;6085;49.452;8.502;2023-07-31T15:51:29;1.85;;;1.45;;
12048;SDS011;6085;49.452;8.502;2023-07-31T15:55:33;2.30;;;1.52;;
12048;SDS011;6085;49.452;8.502;2023-07-31T15:59:35;2.13;;;1.45;;
12048;SDS011;6085;49.452;8.502;2023-07-31T16:03:38;1.75;;;1.60;;
12048;SDS011;6085;49.452;8.502;2023-07-31T16:07:40;1.80;;;1.40;;
12048;SDS011;6085;49.452;8.502;2023-07-31T16:11:43;1.88;;;1.40;;
12048;SDS011;6085;49.452;8.502;2023-07-31T16:15:46;1.35;;;1.17;;
12048;SDS011;6085;49.452;8.502;2023-07-31T16:19:50;4.13;;;1.50;;
12048;SDS011;6085;49.452;8.502;2023-07-31T16:23:51;2.67;;;1.65;;
12048;SDS011;6085;49.452;8.502;2023-07-31T16:27:53;1.88;;;1.60;;
12048;SDS011;6085;49.452;8.502;2023-07-31T16:31:55;2.50;;;1.48;;
12048;SDS011;6085;49.452;8.502;2023-07-31T16:35:59;2.13;;;1.33;;
12048;SDS011;6085;49.452;8.502;2023-07-31T16:40:00;2.13;;;1.58;;
12048;SDS011;6085;49.452;8.502;2023-07-31T16:44:03;1.40;;;1.30;;
12048;SDS011;6085;49.452;8.502;2023-07-31T16:48:05;2.05;;;1.85;;
12048;SDS011;6085;49.452;8.502;2023-07-31T16:52:08;2.30;;;1.73;;
12048;SDS011;6085;49.452;8.502;2023-07-31T16:56:10;2.80;;;1.60;;
12048;SDS011;6085;49.452;8.502;2023-07-31T17:00:13;2.00;;;1.58;;
12048;SDS011;6085;49.452;8.502;2023-07-31T17:04:15;2.90;;;1.90;;
12048;SDS011;6085;49.452;8.502;2023-07-31T17:08:19;3.67;;;1.98;;
12048;SDS011;6085;49.452;8.502;2023-07-31T17:12:21;1.90;;;1.60;;
12048;SDS011;6085;49.452;8.502;2023-07-31T17:16:23;3.03;;;1.60;;
12048;SDS011;6085;49.452;8.502;2023-07-31T17:20:29;1.80;;;1.70;;
12048;SDS011;6085;49.452;8.502;2023-07-31T17:24:34;2.28;;;1.70;;
12048;SDS011;6085;49.452;8.502;2023-07-31T17:28:36;2.20;;;2.00;;
12048;SDS011;6085;49.452;8.502;2023-07-31T17:32:38;1.83;;;1.55;;
12048;SDS011;6085;49.452;8.502;2023-07-31T17:36:40;2.88;;;1.58;;
12048;SDS011;6085;49.452;8.502;2023-07-31T17:40:43;2.67;;;1.77;;
12048;SDS011;6085;49.452;8.502;2023-07-31T17:44:45;2.97;;;1.88;;
12048;SDS011;6085;49.452;8.502;2023-07-31T17:48:47;3.15;;;2.15;;
12048;SDS011;6085;49.452;8.502;2023-07-31T17:52:49;2.85;;;2.10;;
12048;SDS011;6085;49.452;8.502;2023-07-31T17:56:52;2.20;;;1.80;;
12048;SDS011;6085;49.452;8.502;2023-07-31T18:00:54;2.08;;;1.88;;
12048;SDS011;6085;49.452;8.502;2023-07-31T18:04:56;3.20;;;2.05;;
12048;SDS011;6085;49.452;8.502;2023-07-31T18:08:58;5.65;;;2.30;;
12048;SDS011;6085;49.452;8.502;2023-07-31T18:13:01;3.08;;;2.15;;
12048;SDS011;6085;49.452;8.502;2023-07-31T18:17:03;3.25;;;1.55;;
12048;SDS011;6085;49.452;8.502;2023-07-31T18:21:05;2.35;;;2.15;;
12048;SDS011;6085;49.452;8.502;2023-07-31T18:25:07;2.33;;;2.13;;
12048;SDS011;6085;49.452;8.502;2023-07-31T18:29:11;2.90;;;1.88;;
12048;SDS011;6085;49.452;8.502;2023-07-31T18:33:13;3.50;;;2.80;;
12048;SDS011;6085;49.452;8.502;2023-07-31T18:37:15;2.80;;;2.10;;
12048;SDS011;6085;49.452;8.502;2023-07-31T18:41:17;2.25;;;1.77;;
12048;SDS011;6085;49.452;8.502;2023-07-31T18:45:20;4.68;;;1.98;;
12048;SDS011;6085;49.452;8.502;2023-07-31T18:49:22;5.65;;;3.90;;
12048;SDS011;6085;49.452;8.502;2023-07-31T18:53:24;4.32;;;2.55;;
12048;SDS011;6085;49.452;8.502;2023-07-31T18:57:26;2.50;;;1.90;;
12048;SDS011;6085;49.452;8.502;2023-07-31T19:01:29;3.47;;;2.00;;
12048;SDS011;6085;49.452;8.502;2023-07-31T19:05:32;4.05;;;2.22;;
12048;SDS011;6085;49.452;8.502;2023-07-31T19:09:34;3.13;;;2.22;;
12048;SDS011;6085;49.452;8.502;2023-07-31T19:13:36;2.33;;;1.85;;
12048;SDS011;6085;49.452;8.502;2023-07-31T19:17:40;2.25;;;2.00;;
12048;SDS011;6085;49.452;8.502;2023-07-31T19:21:46;2.70;;;2.45;;
12048;SDS011;6085;49.452;8.502;2023-07-31T19:25:49;4.38;;;2.63;;
12048;SDS011;6085;49.452;8.502;2023-07-31T19:29:51;3.67;;;2.58;;
12048;SDS011;6085;49.452;8.502;2023-07-31T19:33:54;3.85;;;2.85;;
12048;SDS011;6085;49.452;8.502;2023-07-31T19:37:56;3.55;;;2.47;;
12048;SDS011;6085;49.452;8.502;2023-07-31T19:41:58;3.22;;;2.58;;
12048;SDS011;6085;49.452;8.502;2023-07-31T19:46:00;2.80;;;2.58;;
12048;SDS011;6085;49.452;8.502;2023-07-31T19:50:04;2.80;;;2.20;;
12048;SDS011;6085;49.452;8.502;2023-07-31T19:54:07;2.78;;;2.33;;
12048;SDS011;6085;49.452;8.502;2023-07-31T19:58:09;2.10;;;1.90;;
12048;SDS011;6085;49.452;8.502;2023-07-31T20:02:11;2.65;;;1.55;;
12048;SDS011;6085;49.452;8.502;2023-07-31T20:06:14;1.77;;;1.67;;
12048;SDS011;6085;49.452;8.502;2023-07-31T20:10:16;2.42;;;1.40;;
12048;SDS011;6085;49.452;8.502;2023-07-31T20:14:18;3.65;;;1.98;;
12048;SDS011;6085;49.452;8.502;2023-07-31T20:18:20;2.53;;;1.95;;
12048;SDS011;6085;49.452;8.502;2023-07-31T20:22:23;1.88;;;1.50;;
12048;SDS011;6085;49.452;8.502;2023-07-31T20:26:25;1.48;;;1.38;;
12048;SDS011;6085;49.452;8.502;2023-07-31T20:30:27;1.92;;;1.83;;
12048;SDS011;6085;49.452;8.502;2023-07-31T20:34:29;2.63;;;2.13;;
12048;SDS011;6085;49.452;8.502;2023-07-31T20:38:32;2.42;;;1.92;;
12048;SDS011;6085;49.452;8.502;2023-07-31T20:42:34;2.85;;;1.88;;
12048;SDS011;6085;49.452;8.502;2023-07-31T20:46:37;5.72;;;3.35;;
12048;SDS011;6085;49.452;8.502;2023-07-31T20:50:39;6.00;;;4.10;;
12048;SDS011;6085;49.452;8.502;2023-07-31T20:54:42;7.10;;;4.88;;
12048;SDS011;6085;49.452;8.502;2023-07-31T20:58:46;6.38;;;4.50;;
12048;SDS011;6085;49.452;8.502;2023-07-31T21:02:49;4.43;;;3.22;;
12048;SDS011;6085;49.452;8.502;2023-07-31T21:06:51;3.13;;;1.98;;
12048;SDS011;6085;49.452;8.502;2023-07-31T21:10:54;3.80;;;2.03;;
12048;SDS011;6085;49.452;8.502;2023-07-31T21:14:56;3.08;;;1.98;;
12048;SDS011;6085;49.452;8.502;2023-07-31T21:18:58;3.65;;;2.00;;
12048;SDS011;6085;49.452;8.502;2023-07-31T21:23:00;2.92;;;2.30;;
12048;SDS011;6085;49.452;8.502;2023-07-31T21:27:07;4.60;;;2.25;;
12048;SDS011;6085;49.452;8.502;2023-07-31T21:31:09;3.20;;;2.50;;
12048;SDS011;6085;49.452;8.502;2023-07-31T21:35:11;3.53;;;2.25;;
12048;SDS011;6085;49.452;8.502;2023-07-31T21:39:13;2.13;;;1.92;;
12048;SDS011;6085;49.452;8.502;2023-07-31T21:43:17;2.88;;;2.20;;
12048;SDS011;6085;49.452;8.502;2023-07-31T21:47:19;4.13;;;2.55;;
12048;SDS011;6085;49.452;8.502;2023-07-31T21:51:20;2.97;;;2.42;;
12048;SDS011;6085;49.452;8.502;2023-07-31T21:55:22;3.72;;;2.20;;
12048;SDS011;6085;49.452;8.502;2023-07-31T21:59:26;3.67;;;2.65;;
12048;SDS011;6085;49.452;8.502;2023-07-31T22:03:28;3.83;;;2.50;;
12048;SDS011;6085;49.452;8.502;2023-07-31T22:07:30;2.35;;;2.15;;
12048;SDS011;6085;49.452;8.502;2023-07-31T22:11:32;3.30;;;2.50;;
12048;SDS011;6085;49.452;8.502;2023-07-31T22:15:35;2.70;;;2.20;;
12048;SDS011;6085;49.452;8.502;2023-07-31T22:19:37;2.38;;;2.17;;
12048;SDS011;6085;49.452;8.502;2023-07-31T22:23:39;2.63;;;2.22;;
12048;SDS011;6085;49.452;8.502;2023-07-31T22:27:41;1.95;;;1.85;;
12048;SDS011;6085;49.452;8.502;2023-07-31T22:31:44;2.45;;;2.15;;
12048;SDS011;6085;49.452;8.502;2023-07-31T22:35:48;2.65;;;2.17;;
12048;SDS011;6085;49.452;8.502;2023-07-31T22:39:50;2.30;;;2.05;;
12048;SDS011;6085;49.452;8.502;2023-07-31T22:43:52;2.78;;;1.85;;
12048;SDS011;6085;49.452;8.502;2023-07-31T22:47:55;3.72;;;1.73;;
12048;SDS011;6085;49.452;8.502;2023-07-31T22:51:57;3.60;;;2.00;;
12048;SDS011;6085;49.452;8.502;2023-07-31T22:56:01;2.45;;;2.00;;
12048;SDS011;6085;49.452;8.502;2023-07-31T23:00:05;2.28;;;1.95;;
12048;SDS011;6085;49.452;8.502;2023-07-31T23:04:09;3.13;;;2.13;;
12048;SDS011;6085;49.452;8.502;2023-07-31T23:08:11;2.05;;;1.65;;
12048;SDS011;6085;49.452;8.502;2023-07-31T23:12:13;2.95;;;2.20;;
12048;SDS011;6085;49.452;8.502;2023-07-31T23:16:15;2.47;;;1.95;;
12048;SDS011;6085;49.452;8.502;2023-07-31T23:20:18;2.53;;;1.90;;
12048;SDS011;6085;49.452;8.502;2023-07-31T23:24:20;2.17;;;2.00;;
12048;SDS011;6085;49.452;8.502;2023-07-31T23:28:22;3.30;;;1.63;;
12048;SDS011;6085;49.452;8.502;2023-07-31T23:32:24;4.00;;;2.58;;
12048;SDS011;6085;49.452;8.502;2023-07-31T23:36:28;2.05;;;1.67;;
12048;SDS011;6085;49.452;8.502;2023-07-31T23:40:30;2.97;;;2.35;;
12048;SDS011;6085;49.452;8.502;2023-07-31T23:44:32;2.13;;;1.83;;
12048;SDS011;6085;49.452;8.502;2023-07-31T23:48:34;2.47;;;2.08;;
12048;SDS011;6085;49.452;8.502;2023-07-31T23:52:38;1.95;;;1.75;;
12048;SDS011;6085;49.452;8.502;2023-07-31T23:56:40;3.90;;;2.15;;
